Time;durP1;ratioP1;P1;durP2;ratioP2;P2;SDS_P1;SDS_P2;PMS_P1;PMS_P2;Temp;Humidity;BMP_temperature;BMP_pressure;BME280_temperature;BME280_humidity;BME280_pressure;Samples;Min_cycle;Max_cycle;Signal;HPM_P1;HPM_P2
2022/09/06 00:01:42;;;;;;;13.70;7.45;;;460.80;2380.80;;;;;;5046219;28;20035;-83
2022/09/06 00:04:08;;;;;;;12.43;7.07;;;436.10;2355.20;;;;;;5048875;28;20435;-81
2022/09/06 00:06:35;;;;;;;12.48;7.38;;;460.80;2380.80;;;;;;5070601;28;20029;-82
2022/09/06 00:09:01;;;;;;;10.80;7.00;;;460.80;2380.80;;;;;;5058238;28;20032;-80
2022/09/06 00:11:27;;;;;;;12.18;6.63;;;460.80;2380.80;;;;;;5042752;28;20021;-82
2022/09/06 00:13:53;;;;;;;11.00;6.72;;;460.80;2380.80;;;;;;5040033;28;20050;-82
2022/09/06 00:16:22;;;;;;;15.57;7.40;;;436.10;2355.20;;;;;;5034901;28;20344;-81
2022/09/06 00:18:51;;;;;;;15.68;7.40;;;436.10;2355.20;;;;;;5057493;28;20086;-81
2022/09/06 00:21:24;;;;;;;13.98;8.38;;;436.10;2355.20;;;;;;5040716;28;20052;-81
2022/09/06 00:23:50;;;;;;;13.93;7.03;;;435.90;2355.20;;;;;;5037151;28;20029;-82
2022/09/06 00:26:16;;;;;;;9.45;6.82;;;460.80;2380.80;;;;;;5038363;28;20030;-83
2022/09/06 00:28:42;;;;;;;12.15;7.05;;;436.10;2355.20;;;;;;5038271;28;20025;-82
2022/09/06 00:31:20;;;;;;;14.05;6.85;;;436.10;2355.20;;;;;;5043996;28;20030;-82
2022/09/06 00:33:46;;;;;;;11.77;7.05;;;435.90;2355.20;;;;;;5037602;28;20040;-82
2022/09/06 00:36:12;;;;;;;10.25;7.07;;;436.00;2355.20;;;;;;5077640;28;20406;-83
2022/09/06 00:38:39;;;;;;;12.57;7.40;;;435.90;2355.20;;;;;;5038939;28;20033;-82
2022/09/06 00:41:07;;;;;;;12.40;7.60;;;435.70;2355.20;;;;;;5041779;28;20045;-82
2022/09/06 00:43:32;;;;;;;12.50;7.10;;;435.80;2355.20;;;;;;5041603;28;20040;-82
2022/09/06 00:45:59;;;;;;;9.43;7.70;;;435.90;2355.20;;;;;;5042354;28;20024;-81
2022/09/06 00:48:25;;;;;;;12.70;7.28;;;435.70;2355.20;;;;;;5043484;28;20067;-82
2022/09/06 00:50:56;;;;;;;12.52;7.93;;;435.70;2355.20;;;;;;5040899;28;20406;-82
2022/09/06 00:53:22;;;;;;;12.43;7.00;;;435.70;2355.20;;;;;;5037601;28;21369;-82
2022/09/06 00:55:48;;;;;;;9.75;6.95;;;435.90;2355.20;;;;;;5037140;28;20529;-82
2022/09/06 00:58:15;;;;;;;12.50;7.25;;;435.90;2355.20;;;;;;5038547;28;20037;-80
2022/09/06 01:00:40;;;;;;;11.75;7.03;;;435.90;2355.20;;;;;;5043021;28;20053;-82
2022/09/06 01:03:08;;;;;;;10.43;6.68;;;436.00;2355.20;;;;;;5034944;28;20056;-82
2022/09/06 01:06:05;;;;;;;12.60;7.00;;;436.00;2355.20;;;;;;5031122;28;20140;-82
2022/09/06 01:08:37;;;;;;;8.85;6.57;;;436.10;2355.20;;;;;;5036716;28;20064;-81
2022/09/06 01:11:25;;;;;;;9.18;6.22;;;436.10;2355.20;;;;;;5044589;28;20490;-82
2022/09/06 01:13:54;;;;;;;12.32;6.50;;;436.00;2355.20;;;;;;5068382;28;20136;-82
2022/09/06 01:16:23;;;;;;;15.07;6.78;;;436.10;2355.20;;;;;;5040967;28;20029;-82
2022/09/06 01:19:13;;;;;;;9.15;6.60;;;436.10;2355.20;;;;;;5041289;28;20132;-81
2022/09/06 01:21:51;;;;;;;9.25;6.28;;;460.80;2380.80;;;;;;5041691;28;20026;-83
2022/09/06 01:24:35;;;;;;;8.82;7.18;;;460.80;2380.80;;;;;;5076507;28;20033;-82
2022/09/06 01:27:20;;;;;;;13.40;6.88;;;436.10;2355.20;;;;;;5043075;28;20029;-81
2022/09/06 01:30:07;;;;;;;11.65;6.85;;;460.80;2380.80;;;;;;5042364;28;20390;-82
2022/09/06 01:33:02;;;;;;;9.35;6.63;;;436.00;2355.20;;;;;;5077109;28;20025;-82
2022/09/06 01:35:49;;;;;;;12.07;6.75;;;436.00;2355.20;;;;;;5044292;28;20083;-82
2022/09/06 01:38:16;;;;;;;12.82;6.40;;;435.90;2355.20;;;;;;5039969;28;20149;-82
2022/09/06 01:40:42;;;;;;;10.80;6.88;;;436.00;2355.20;;;;;;5043110;28;20501;-82
2022/09/06 01:43:11;;;;;;;12.40;7.25;;;436.00;2355.20;;;;;;5046297;28;20048;-80
2022/09/06 01:46:01;;;;;;;9.73;7.35;;;436.00;2355.20;;;;;;5040792;28;20030;-82
2022/09/06 01:49:06;;;;;;;9.55;6.35;;;435.90;2355.20;;;;;;5046307;28;20088;-82
2022/09/06 01:52:02;;;;;;;10.35;6.50;;;435.90;2355.20;;;;;;5033069;28;20037;-82
2022/09/06 01:54:56;;;;;;;10.98;6.47;;;435.90;2355.20;;;;;;5006221;28;20493;-82
2022/09/06 01:57:40;;;;;;;11.45;7.05;;;435.90;2355.20;;;;;;5073616;28;20033;-83
2022/09/06 02:00:08;;;;;;;9.88;6.35;;;435.90;2355.20;;;;;;5036865;28;20537;-82
2022/09/06 02:02:52;;;;;;;9.40;6.20;;;435.90;2355.20;;;;;;5034410;28;20025;-83
2022/09/06 02:05:41;;;;;;;11.55;6.35;;;435.90;2355.20;;;;;;5043270;28;20160;-82
2022/09/06 02:08:13;;;;;;;9.73;6.43;;;435.90;2355.20;;;;;;5044908;28;20036;-82
2022/09/06 02:10:49;;;;;;;10.47;7.00;;;435.80;2355.20;;;;;;5045692;28;20048;-82
2022/09/06 02:13:17;;;;;;;9.38;6.25;;;435.80;2355.20;;;;;;5043635;28;20116;-82
2022/09/06 02:16:01;;;;;;;8.80;6.80;;;435.90;2355.20;;;;;;5076401;28;20033;-82
2022/09/06 02:18:35;;;;;;;11.77;6.40;;;435.80;2355.20;;;;;;5046716;28;20037;-82
2022/09/06 02:21:02;;;;;;;9.10;6.55;;;436.00;2355.20;;;;;;5046332;28;20029;-82
2022/09/06 02:23:33;;;;;;;13.45;6.10;;;435.90;2355.20;;;;;;5047096;28;20032;-82
2022/09/06 02:26:17;;;;;;;15.13;8.25;;;435.90;2355.20;;;;;;5044998;28;20041;-81
2022/09/06 02:28:44;;;;;;;11.55;7.30;;;436.00;2355.20;;;;;;5041374;28;20088;-82
2022/09/06 02:31:20;;;;;;;14.35;8.18;;;436.00;2355.20;;;;;;5045074;28;20391;-82
2022/09/06 02:33:47;;;;;;;12.70;8.15;;;435.80;2355.20;;;;;;5048538;28;20075;-82
2022/09/06 02:36:14;;;;;;;14.20;7.32;;;435.90;2355.20;;;;;;5047687;28;20083;-82
2022/09/06 02:38:42;;;;;;;18.60;7.60;;;436.00;2355.20;;;;;;5054261;28;20037;-83
2022/09/06 02:41:11;;;;;;;13.70;6.50;;;436.00;2355.20;;;;;;5048891;28;20029;-83
2022/09/06 02:43:37;;;;;;;13.23;7.05;;;436.10;2355.20;;;;;;5039982;28;20037;-82
2022/09/06 02:46:03;;;;;;;14.70;7.38;;;460.80;2380.80;;;;;;5041150;28;20403;-82
2022/09/06 02:48:29;;;;;;;11.88;7.07;;;436.10;2355.20;;;;;;5041794;28;20029;-83
2022/09/06 02:50:55;;;;;;;11.63;7.05;;;436.10;2355.20;;;;;;5043778;28;20391;-83
2022/09/06 02:53:21;;;;;;;11.63;5.95;;;436.10;2355.20;;;;;;5047072;28;20032;-81
2022/09/06 02:55:47;;;;;;;12.32;6.45;;;460.80;2380.80;;;;;;5042905;28;20597;-81
2022/09/06 02:58:14;;;;;;;9.75;5.93;;;460.80;2380.80;;;;;;5042637;28;20036;-82
2022/09/06 03:00:40;;;;;;;11.85;6.57;;;460.80;2380.80;;;;;;5078481;28;20036;-82
2022/09/06 03:03:06;;;;;;;10.40;6.88;;;460.80;2380.80;;;;;;5045850;28;20386;-82
2022/09/06 03:05:32;;;;;;;9.20;6.03;;;460.80;2380.80;;;;;;5047460;28;20029;-82
2022/09/06 03:07:58;;;;;;;9.25;6.03;;;460.80;2380.80;;;;;;5043050;28;20040;-82
2022/09/06 03:10:25;;;;;;;10.25;6.38;;;460.80;2380.80;;;;;;5039612;28;20025;-82
2022/09/06 03:12:51;;;;;;;7.82;5.80;;;460.80;2380.80;;;;;;5038993;28;20029;-81
2022/09/06 03:15:17;;;;;;;10.52;6.03;;;460.80;2380.80;;;;;;5041851;28;20061;-81
2022/09/06 03:17:43;;;;;;;7.95;5.93;;;460.80;2380.80;;;;;;5043610;28;20043;-82
2022/09/06 03:20:10;;;;;;;9.38;6.28;;;460.90;2380.80;;;;;;5070778;28;20383;-80
2022/09/06 03:22:39;;;;;;;15.07;6.65;;;460.80;2380.80;;;;;;5044797;28;20471;-82
2022/09/06 03:25:07;;;;;;;8.90;6.25;;;436.10;2355.20;;;;;;5047990;28;20021;-83
2022/09/06 03:27:33;;;;;;;11.75;6.50;;;460.80;2380.80;;;;;;5042106;28;20033;-82
2022/09/06 03:29:59;;;;;;;11.15;6.97;;;436.10;2355.20;;;;;;5034311;28;20103;-82
2022/09/06 03:32:24;;;;;;;14.52;7.30;;;436.10;2355.20;;;;;;5032970;28;20467;-81
2022/09/06 03:34:50;;;;;;;9.55;6.63;;;435.90;2355.20;;;;;;5036629;28;20025;-82
2022/09/06 03:37:18;;;;;;;14.48;7.15;;;436.00;2355.20;;;;;;5041676;28;20044;-82
2022/09/06 03:39:44;;;;;;;16.30;8.38;;;435.90;2355.20;;;;;;5072574;28;20030;-82
2022/09/06 03:42:10;;;;;;;15.10;7.53;;;435.80;2355.20;;;;;;5049237;28;20021;-82
2022/09/06 03:44:36;;;;;;;10.43;6.70;;;435.60;2355.20;;;;;;5037290;28;20167;-82
2022/09/06 03:47:02;;;;;;;8.95;6.50;;;435.90;2355.20;;;;;;5045215;28;20060;-82
2022/09/06 03:49:28;;;;;;;18.52;8.07;;;435.90;2355.20;;;;;;5036691;28;20033;-81
2022/09/06 03:51:54;;;;;;;10.10;6.95;;;436.00;2355.20;;;;;;5039799;28;20036;-81
2022/09/06 03:54:20;;;;;;;15.15;7.55;;;436.00;2355.20;;;;;;5039293;28;20029;-82
2022/09/06 03:56:46;;;;;;;16.75;6.72;;;436.10;2355.20;;;;;;5046943;28;20028;-82
2022/09/06 03:59:11;;;;;;;12.23;6.05;;;436.10;2355.20;;;;;;5040454;28;20041;-82
2022/09/06 04:01:37;;;;;;;14.38;6.65;;;436.10;2355.20;;;;;;5039517;28;21325;-82
2022/09/06 04:04:03;;;;;;;10.38;6.40;;;435.90;2355.20;;;;;;5042567;28;20020;-82
2022/09/06 04:06:29;;;;;;;11.60;6.55;;;435.80;2355.20;;;;;;5050001;28;20029;-82
2022/09/06 04:08:55;;;;;;;12.55;7.15;;;435.70;2355.20;;;;;;5052217;28;20033;-82
2022/09/06 04:11:20;;;;;;;15.05;6.50;;;435.80;2355.20;;;;;;5046885;28;20028;-81
2022/09/06 04:13:47;;;;;;;13.65;6.93;;;435.70;2355.20;;;;;;5042595;28;20025;-82
2022/09/06 04:16:13;;;;;;;15.10;6.85;;;435.90;2355.20;;;;;;5037558;28;20026;-82
2022/09/06 04:18:39;;;;;;;11.63;6.13;;;435.90;2355.20;;;;;;5037912;28;20036;-83
2022/09/06 04:21:05;;;;;;;14.25;6.72;;;435.90;2355.20;;;;;;5039861;28;20550;-82
2022/09/06 04:23:31;;;;;;;12.05;7.38;;;435.90;2355.20;;;;;;5040668;28;20025;-81
2022/09/06 04:25:58;;;;;;;11.27;6.38;;;435.90;2355.20;;;;;;5038919;28;20036;-82
2022/09/06 04:28:25;;;;;;;15.10;6.60;;;436.00;2355.20;;;;;;5031445;28;20079;-81
2022/09/06 04:30:56;;;;;;;10.68;6.43;;;436.00;2355.20;;;;;;5034126;28;20116;-82
2022/09/06 04:33:25;;;;;;;11.85;6.15;;;435.60;2355.20;;;;;;5042161;28;20406;-81
2022/09/06 04:35:52;;;;;;;9.40;6.22;;;435.90;2355.20;;;;;;5039368;28;20069;-80
2022/09/06 04:38:19;;;;;;;8.73;6.22;;;436.10;2355.20;;;;;;5038603;28;20043;-82
2022/09/06 04:40:44;;;;;;;8.95;5.55;;;436.10;2355.20;;;;;;5040990;28;20037;-82
2022/09/06 04:43:10;;;;;;;8.88;6.05;;;460.80;2380.80;;;;;;5037302;28;20040;-82
2022/09/06 04:45:36;;;;;;;13.60;6.57;;;460.80;2380.80;;;;;;5042288;28;20050;-82
2022/09/06 04:48:02;;;;;;;12.23;5.93;;;460.80;2380.80;;;;;;5068088;28;20532;-83
2022/09/06 04:50:28;;;;;;;13.32;6.15;;;460.80;2380.80;;;;;;5031191;28;20379;-81
2022/09/06 04:52:54;;;;;;;12.07;6.50;;;460.90;2380.80;;;;;;5038684;28;20030;-82
2022/09/06 04:55:20;;;;;;;19.10;6.28;;;461.00;2380.80;;;;;;5041263;28;20037;-82
2022/09/06 04:57:45;;;;;;;13.52;7.68;;;461.00;2380.80;;;;;;5039445;28;20033;-83
2022/09/06 05:00:12;;;;;;;10.38;6.28;;;461.00;2380.80;;;;;;5037899;28;20033;-82
2022/09/06 05:02:37;;;;;;;11.35;8.05;;;460.90;2380.80;;;;;;5043707;28;20044;-82
2022/09/06 05:05:04;;;;;;;15.48;7.68;;;460.90;2380.80;;;;;;5043774;28;20118;-82
2022/09/06 05:07:29;;;;;;;13.95;8.18;;;460.80;2380.80;;;;;;5034745;28;20033;-82
2022/09/06 05:09:55;;;;;;;14.57;8.80;;;461.00;2380.80;;;;;;5042782;28;20029;-80
2022/09/06 05:12:21;;;;;;;16.42;8.55;;;461.10;2380.80;;;;;;5047649;28;20025;-81
2022/09/06 05:14:47;;;;;;;15.93;8.82;;;461.10;2380.80;;;;;;5051240;28;20434;-82
2022/09/06 05:17:13;;;;;;;22.10;9.60;;;461.20;2380.80;;;;;;5046695;28;20371;-82
2022/09/06 05:19:40;;;;;;;14.00;8.30;;;460.90;2380.80;;;;;;5072873;28;20037;-82
2022/09/06 05:22:05;;;;;;;20.63;9.32;;;461.00;2380.80;;;;;;5046000;28;20025;-82
2022/09/06 05:24:31;;;;;;;19.67;9.98;;;461.00;2380.80;;;;;;5057735;28;20028;-82
2022/09/06 05:26:57;;;;;;;18.30;10.18;;;460.80;2380.80;;;;;;5046322;28;20025;-82
2022/09/06 05:29:23;;;;;;;12.57;8.70;;;436.10;2355.20;;;;;;5043130;28;20041;-82
2022/09/06 05:31:49;;;;;;;23.40;10.48;;;436.00;2355.20;;;;;;5045039;28;20029;-82
2022/09/06 05:34:15;;;;;;;20.45;10.05;;;435.90;2355.20;;;;;;5039073;28;20021;-81
2022/09/06 05:36:41;;;;;;;19.52;9.10;;;435.90;2355.20;;;;;;5041011;28;20051;-82
2022/09/06 05:39:07;;;;;;;19.02;8.57;;;436.10;2355.20;;;;;;5044374;28;20037;-81
2022/09/06 05:41:33;;;;;;;14.23;8.18;;;460.80;2380.80;;;;;;5037476;28;20053;-82
2022/09/06 05:43:58;;;;;;;17.08;7.38;;;460.80;2380.80;;;;;;5040638;28;20029;-82
2022/09/06 05:46:25;;;;;;;14.80;6.55;;;461.00;2380.80;;;;;;5040154;28;20487;-81
2022/09/06 05:48:53;;;;;;;16.85;7.13;;;461.00;2380.80;;;;;;5044983;28;20030;-82
2022/09/06 05:51:19;;;;;;;28.10;8.70;;;461.00;2380.80;;;;;;5070733;28;20029;-82
2022/09/06 05:53:45;;;;;;;22.30;7.63;;;461.10;2380.80;;;;;;5042122;28;20052;-81
2022/09/06 05:56:13;;;;;;;29.50;8.23;;;461.20;2380.80;;;;;;5033826;28;20463;-82
2022/09/06 05:58:39;;;;;;;32.67;9.05;;;461.20;2380.80;;;;;;5047021;28;20364;-82
2022/09/06 06:01:11;;;;;;;32.10;9.65;;;461.20;2380.80;;;;;;5044898;28;20029;-82
2022/09/06 06:03:37;;;;;;;38.17;10.15;;;461.20;2380.80;;;;;;5040959;28;20493;-82
2022/09/06 06:06:03;;;;;;;19.90;8.27;;;461.10;2380.80;;;;;;5065934;28;20018;-83
2022/09/06 06:08:29;;;;;;;23.10;8.40;;;461.30;2380.80;;;;;;5037520;28;20083;-84
2022/09/06 06:11:04;;;;;;;21.70;8.05;;;461.30;2380.80;;;;;;5038947;28;20037;-85
2022/09/06 06:13:33;;;;;;;12.50;8.13;;;461.40;2380.80;;;;;;5075293;28;20068;-85
2022/09/06 06:16:01;;;;;;;35.65;9.30;;;461.50;2380.80;;;;;;5076841;28;20475;-86
2022/09/06 06:18:27;;;;;;;35.38;9.75;;;461.50;2380.80;;;;;;5047442;28;20127;-86
2022/09/06 06:21:06;;;;;;;22.58;8.52;;;461.60;2380.80;;;;;;5046334;28;20108;-86
2022/09/06 06:23:32;;;;;;;26.15;8.32;;;461.60;2380.80;;;;;;5051760;28;20125;-84
2022/09/06 06:25:58;;;;;;;15.80;8.82;;;461.50;2380.80;;;;;;5042433;28;20108;-85
2022/09/06 06:28:24;;;;;;;35.67;10.02;;;461.50;2380.80;;;;;;5048867;28;20455;-86
2022/09/06 06:30:50;;;;;;;26.58;8.35;;;461.40;2380.80;;;;;;5046390;28;20091;-84
2022/09/06 06:33:19;;;;;;;18.52;8.30;;;461.50;2380.80;;;;;;5038361;28;20430;-88
2022/09/06 06:35:59;;;;;;;18.00;8.90;;;461.60;2380.80;;;;;;5044123;28;20491;-84
2022/09/06 06:38:41;;;;;;;21.88;9.07;;;461.50;2380.80;;;;;;5079748;28;20034;-86
2022/09/06 06:41:09;;;;;;;15.43;7.95;;;461.50;2380.80;;;;;;5043985;28;20108;-85
2022/09/06 06:43:36;;;;;;;21.70;9.57;;;461.60;2380.80;;;;;;5049074;28;20442;-85
2022/09/06 06:46:08;;;;;;;22.00;10.02;;;461.70;2380.80;;;;;;5043745;28;20018;-87
2022/09/06 06:48:35;;;;;;;;;;;461.70;2380.80;;;;;;5047932;28;20051;-86
2022/09/06 06:51:01;;;;;;;20.83;9.98;;;486.40;2380.80;;;;;;5077537;28;19988;-86
2022/09/06 06:53:27;;;;;;;15.02;7.75;;;486.40;2380.80;;;;;;5046579;28;20017;-86
2022/09/06 06:55:54;;;;;;;16.83;8.50;;;486.50;2380.80;;;;;;5050773;28;20054;-87
2022/09/06 06:58:20;;;;;;;15.13;8.32;;;486.70;2380.80;;;;;;5046588;28;20029;-85
2022/09/06 07:00:46;;;;;;;15.10;8.13;;;486.70;2380.80;;;;;;5048518;28;20477;-86
2022/09/06 07:03:12;;;;;;;12.75;7.22;;;486.90;2380.80;;;;;;5047513;28;20028;-86
2022/09/06 07:05:42;;;;;;;13.32;7.68;;;486.90;2380.80;;;;;;5036918;28;20067;-86
2022/09/06 07:08:08;;;;;;;15.82;8.20;;;486.90;2380.80;;;;;;5047588;28;20025;-86
2022/09/06 07:10:34;;;;;;;10.57;7.30;;;487.00;2380.80;;;;;;5044124;28;20494;-84
2022/09/06 07:13:01;;;;;;;16.05;9.10;;;486.90;2380.80;;;;;;5061429;28;20080;-86
2022/09/06 07:15:27;;;;;;;19.52;8.35;;;486.80;2380.80;;;;;;5060667;28;20041;-85
2022/09/06 07:17:57;;;;;;;13.52;8.48;;;486.80;2380.80;;;;;;5063637;28;20056;-86
2022/09/06 07:20:24;;;;;;;18.50;7.85;;;486.90;2380.80;;;;;;5083475;28;20021;-84
2022/09/06 07:23:04;;;;;;;14.48;8.60;;;486.90;2380.80;;;;;;5058692;28;20025;-86
2022/09/06 07:25:31;;;;;;;23.75;8.13;;;487.00;2380.80;;;;;;5045032;28;20430;-84
2022/09/06 07:28:05;;;;;;;15.93;7.45;;;487.20;2380.80;;;;;;5047155;28;20040;-83
2022/09/06 07:30:33;;;;;;;15.30;8.70;;;487.30;2380.80;;;;;;5044401;28;20030;-83
2022/09/06 07:32:59;;;;;;;19.83;11.50;;;512.10;2380.80;;;;;;5042411;28;20025;-86
2022/09/06 07:35:26;;;;;;;17.45;8.68;;;487.00;2380.80;;;;;;5051572;28;20026;-82
2022/09/06 07:37:56;;;;;;;13.13;8.68;;;487.20;2380.80;;;;;;5069650;28;20032;-84
2022/09/06 07:40:23;;;;;;;21.20;9.90;;;487.30;2380.80;;;;;;5074643;28;20093;-82
2022/09/06 07:42:49;;;;;;;17.02;8.20;;;461.70;2380.80;;;;;;5073806;28;20029;-83
2022/09/06 07:45:15;;;;;;;14.48;8.23;;;;;;;;;;5066953;28;20085;-84
2022/09/06 07:47:41;;;;;;;13.23;8.90;;;;;;;;;;5070463;28;20048;-83
2022/09/06 07:50:08;;;;;;;21.40;9.90;;;512.40;2380.80;;;;;;5068301;28;20115;-83
2022/09/06 07:52:33;;;;;;;12.55;8.45;;;512.40;2380.80;;;;;;5067434;28;20074;-86
2022/09/06 07:54:59;;;;;;;15.85;7.88;;;512.50;2380.80;;;;;;5048751;28;20029;-85
2022/09/06 07:57:25;;;;;;;10.90;7.47;;;512.60;2380.80;;;;;;5034312;28;20490;-84
2022/09/06 07:59:51;;;;;;;14.70;8.80;;;512.80;2380.80;;;;;;5060520;28;20036;-85
2022/09/06 08:02:17;;;;;;;17.10;8.35;;;512.90;2380.80;;;;;;5033520;28;20032;-82
2022/09/06 08:04:43;;;;;;;12.27;7.65;;;512.90;2380.80;;;;;;5037915;28;20463;-83
2022/09/06 08:07:09;;;;;;;11.80;7.78;;;512.80;2380.80;;;;;;5034182;28;20033;-85
2022/09/06 08:09:35;;;;;;;12.93;8.05;;;512.80;2380.80;;;;;;5047882;28;20033;-84
2022/09/06 08:12:05;;;;;;;13.00;7.10;;;512.70;2380.80;;;;;;5040047;28;20037;-82
2022/09/06 08:14:32;;;;;;;12.82;7.50;;;512.80;2380.80;;;;;;5039123;28;20471;-83
2022/09/06 08:17:10;;;;;;;14.07;7.70;;;512.80;2380.80;;;;;;5042190;28;20029;-82
2022/09/06 08:19:45;;;;;;;13.20;8.05;;;537.60;2406.40;;;;;;5045833;28;20509;-83
2022/09/06 08:22:11;;;;;;;10.07;7.50;;;537.90;2406.40;;;;;;5040853;28;20052;-83
2022/09/06 08:24:37;;;;;;;11.15;7.13;;;538.00;2406.40;;;;;;5042323;28;20399;-82
2022/09/06 08:27:06;;;;;;;11.32;7.88;;;538.00;2406.40;;;;;;5032689;28;20064;-83
2022/09/06 08:29:33;;;;;;;16.90;8.35;;;512.70;2380.80;;;;;;5033290;28;20037;-83
2022/09/06 08:32:02;;;;;;;11.60;7.45;;;538.00;2406.40;;;;;;5044504;28;20048;-83
2022/09/06 08:34:28;;;;;;;10.98;7.15;;;537.90;2406.40;;;;;;5038715;28;20025;-82
2022/09/06 08:36:53;;;;;;;13.77;7.38;;;538.00;2406.40;;;;;;5046333;28;20131;-82
2022/09/06 08:39:19;;;;;;;11.43;7.47;;;537.80;2406.40;;;;;;5043172;28;20132;-82
2022/09/06 08:41:50;;;;;;;9.65;7.57;;;537.90;2406.40;;;;;;5049497;28;20064;-81
2022/09/06 08:44:39;;;;;;;9.25;7.00;;;538.00;2406.40;;;;;;5048879;28;20075;-83
2022/09/06 08:47:13;;;;;;;9.55;6.50;;;538.30;2406.40;;;;;;5042035;28;20028;-83
2022/09/06 08:49:43;;;;;;;10.55;5.97;;;538.40;2406.40;;;;;;5051423;28;20078;-83
2022/09/06 08:52:24;;;;;;;12.30;6.95;;;538.50;2406.40;;;;;;5050392;28;20454;-83
2022/09/06 08:55:15;;;;;;;12.40;7.53;;;563.40;2432.00;;;;;;5064206;28;20091;-83
2022/09/06 08:57:55;;;;;;;10.18;7.28;;;563.70;2432.00;;;;;;5066493;28;20036;-83
2022/09/06 09:00:22;;;;;;;8.18;6.25;;;563.90;2432.00;;;;;;5044871;28;20040;-85
2022/09/06 09:03:02;;;;;;;9.57;6.50;;;564.00;2432.00;;;;;;5031786;28;20022;-85
2022/09/06 09:05:31;;;;;;;12.90;6.43;;;564.10;2432.00;;;;;;5038728;28;20025;-84
2022/09/06 09:08:05;;;;;;;9.13;6.85;;;588.80;2432.00;;;;;;5033704;28;20025;-84
2022/09/06 09:10:49;;;;;;;10.75;6.05;;;588.90;2432.00;;;;;;5031151;28;20033;-83
2022/09/06 09:13:41;;;;;;;8.45;5.40;;;589.00;2432.00;;;;;;5043460;28;20071;-83
2022/09/06 09:16:07;;;;;;;9.98;6.30;;;589.10;2432.00;;;;;;5037429;28;20104;-81
2022/09/06 09:18:38;;;;;;;10.60;5.07;;;589.20;2432.00;;;;;;5038274;28;20120;-84
2022/09/06 09:21:04;;;;;;;9.50;5.68;;;589.30;2432.00;;;;;;5040876;28;20037;-83
2022/09/06 09:23:31;;;;;;;12.02;6.45;;;589.40;2432.00;;;;;;5041502;28;20040;-85
2022/09/06 09:26:08;;;;;;;8.77;5.75;;;589.50;2432.00;;;;;;5042037;28;20386;-83
2022/09/06 09:28:34;;;;;;;8.02;5.47;;;589.60;2432.00;;;;;;5036320;28;20471;-83
2022/09/06 09:31:00;;;;;;;9.27;5.90;;;589.40;2432.00;;;;;;5042434;28;20063;-84
2022/09/06 09:33:29;;;;;;;9.07;6.32;;;589.50;2432.00;;;;;;5046599;28;20029;-82
2022/09/06 09:36:06;;;;;;;9.25;5.97;;;589.50;2432.00;;;;;;5037118;28;20073;-82
2022/09/06 09:38:42;;;;;;;13.27;9.35;;;589.70;2432.00;;;;;;5043775;28;20037;-80
2022/09/06 09:41:10;;;;;;;9.90;5.68;;;614.40;2432.00;;;;;;5068819;28;20124;-83
2022/09/06 09:43:58;;;;;;;11.95;5.70;;;614.50;2432.00;;;;;;5035447;28;20030;-81
2022/09/06 09:46:23;;;;;;;12.77;5.82;;;614.40;2432.00;;;;;;5067908;28;20022;-83
2022/09/06 09:49:29;;;;;;;7.05;5.55;;;614.50;2432.00;;;;;;5040821;28;20036;-85
2022/09/06 09:52:06;;;;;;;8.13;5.22;;;614.70;2432.00;;;;;;5076126;28;20463;-84
2022/09/06 09:54:37;;;;;;;8.98;4.72;;;614.80;2432.00;;;;;;5054933;28;20026;-83
2022/09/06 09:57:23;;;;;;;7.28;5.22;;;614.80;2432.00;;;;;;5042889;28;20025;-84
2022/09/06 09:59:53;;;;;;;7.40;4.93;;;614.80;2432.00;;;;;;5050617;28;20065;-83
2022/09/06 10:02:34;;;;;;;7.32;5.50;;;614.90;2432.00;;;;;;5044967;28;20360;-83
2022/09/06 10:05:11;;;;;;;8.02;4.70;;;615.00;2432.00;;;;;;5039739;28;20028;-84
2022/09/06 10:07:48;;;;;;;7.22;5.57;;;615.00;2432.00;;;;;;5037980;28;20384;-83
2022/09/06 10:10:24;;;;;;;5.70;4.30;;;615.30;2432.00;;;;;;5069435;28;20025;-81
2022/09/06 10:13:18;;;;;;;6.38;4.97;;;640.00;2432.00;;;;;;5042998;28;20079;-82
2022/09/06 10:15:44;;;;;;;8.77;5.72;;;640.10;2432.00;;;;;;5039577;28;20065;-81
2022/09/06 10:18:31;;;;;;;5.85;4.43;;;640.20;2432.00;;;;;;5040436;28;20022;-82
2022/09/06 10:21:03;;;;;;;10.00;5.22;;;640.50;2432.00;;;;;;5039052;28;20111;-82
2022/09/06 10:24:06;;;;;;;7.47;5.00;;;640.60;2432.00;;;;;;5037482;28;20052;-82
2022/09/06 10:26:59;;;;;;;8.98;5.18;;;640.70;2432.00;;;;;;5040654;28;20033;-81
2022/09/06 10:29:41;;;;;;;7.68;5.00;;;665.80;2432.00;;;;;;5043862;28;20053;-81
2022/09/06 10:32:25;;;;;;;6.30;3.90;;;665.90;2432.00;;;;;;5049930;28;20033;-80
2022/09/06 10:35:04;;;;;;;10.40;4.35;;;640.90;2432.00;;;;;;5039022;28;20037;-81
2022/09/06 10:38:03;;;;;;;5.50;4.15;;;665.70;2432.00;;;;;;5037540;28;20049;-81
2022/09/06 10:40:38;;;;;;;10.48;5.18;;;666.10;2432.00;;;;;;5036348;28;20060;-81
2022/09/06 10:43:07;;;;;;;5.60;3.97;;;666.20;2432.00;;;;;;5046799;28;20025;-81
2022/09/06 10:45:59;;;;;;;11.00;4.40;;;666.30;2432.00;;;;;;5050646;28;20030;-81
2022/09/06 10:48:34;;;;;;;5.78;3.72;;;666.40;2432.00;;;;;;5041923;28;20040;-82
2022/09/06 10:51:07;;;;;;;6.78;3.70;;;691.20;2329.60;;;;;;5038126;28;20030;-82
2022/09/06 10:53:55;;;;;;;6.47;4.05;;;691.20;2304.00;;;;;;5036132;28;20036;-83
2022/09/06 10:56:36;;;;;;;5.90;3.78;;;666.50;2252.80;;;;;;5041026;28;20360;-82
2022/09/06 10:59:15;;;;;;;5.78;4.32;;;666.50;2278.40;;;;;;5048286;28;20136;-81
2022/09/06 11:02:03;;;;;;;7.38;4.03;;;691.30;2304.00;;;;;;5041227;28;20033;-80
2022/09/06 11:04:38;;;;;;;5.60;4.07;;;691.60;2278.40;;;;;;5036446;28;20490;-81
2022/09/06 11:07:16;;;;;;;5.45;3.40;;;691.70;2252.80;;;;;;5045104;28;20030;-82
2022/09/06 11:09:53;;;;;;;14.27;5.57;;;691.50;2201.60;;;;;;5046044;28;20049;-81
2022/09/06 11:12:27;;;;;;;8.20;4.07;;;691.60;2227.20;;;;;;5040875;28;20037;-82
2022/09/06 11:14:53;;;;;;;6.95;4.25;;;691.90;2201.60;;;;;;5043377;28;20387;-81
2022/09/06 11:17:30;;;;;;;11.05;8.85;;;716.80;2227.20;;;;;;5036614;28;20475;-81
2022/09/06 11:20:11;;;;;;;6.47;3.55;;;716.90;2227.20;;;;;;5043600;28;20037;-82
2022/09/06 11:22:37;;;;;;;6.90;4.18;;;716.80;2150.40;;;;;;5045224;28;20196;-81
2022/09/06 11:25:21;;;;;;;7.13;4.50;;;717.00;2252.80;;;;;;5039996;28;20115;-83
2022/09/06 11:27:54;;;;;;;8.40;3.20;;;717.10;2176.00;;;;;;5044984;28;20041;-83
2022/09/06 11:30:24;;;;;;;6.22;4.82;;;716.90;2150.40;;;;;;5035850;28;20040;-82
2022/09/06 11:33:01;;;;;;;4.63;3.45;;;717.00;2176.00;;;;;;5039234;28;20067;-81
2022/09/06 11:35:33;;;;;;;4.60;3.47;;;692.10;2099.20;;;;;;5042938;28;20466;-82
2022/09/06 11:38:14;;;;;;;5.95;3.35;;;691.90;2099.20;;;;;;5038351;28;20059;-81
2022/09/06 11:40:47;;;;;;;4.05;3.10;;;691.90;2124.80;;;;;;5039277;28;20099;-82
2022/09/06 11:43:14;;;;;;;5.00;3.17;;;716.80;2124.80;;;;;;5039951;28;20120;-80
2022/09/06 11:45:50;;;;;;;4.80;3.40;;;717.10;2176.00;;;;;;5040672;28;20040;-81
2022/09/06 11:48:22;;;;;;;5.80;3.60;;;717.00;2124.80;;;;;;5043146;28;20025;-81
2022/09/06 11:50:57;;;;;;;4.43;3.30;;;692.10;2099.20;;;;;;5045407;28;20104;-80
2022/09/06 11:53:29;;;;;;;4.78;3.40;;;716.80;2124.80;;;;;;5037551;28;20056;-82
2022/09/06 11:56:00;;;;;;;7.60;3.25;;;717.10;2073.60;;;;;;5038758;28;20022;-82
2022/09/06 11:58:56;;;;;;;7.22;3.95;;;717.00;2099.20;;;;;;5040718;28;20151;-81
2022/09/06 12:01:22;;;;;;;6.40;3.40;;;717.20;2150.40;;;;;;5037821;28;20041;-82
2022/09/06 12:03:48;;;;;;;6.47;3.67;;;717.40;2073.60;;;;;;5046333;28;20028;-82
2022/09/06 12:06:18;;;;;;;5.28;3.53;;;717.60;2099.20;;;;;;5042308;28;20120;-83
2022/09/06 12:08:51;;;;;;;5.07;3.33;;;717.70;2048.00;;;;;;5050637;28;20032;-82
2022/09/06 12:11:21;;;;;;;5.82;4.53;;;717.70;2073.60;;;;;;5042672;28;20467;-83
2022/09/06 12:14:04;;;;;;;4.85;3.42;;;742.90;2099.20;;;;;;5037745;28;20129;-83
2022/09/06 12:16:58;;;;;;;5.60;3.17;;;743.00;2099.20;;;;;;5036568;28;20059;-84
2022/09/06 12:20:05;;;;;;;4.88;3.13;;;743.00;1971.20;;;;;;5033653;28;20044;-84
2022/09/06 12:22:40;;;;;;;4.00;2.80;;;742.90;1920.00;;;;;;5033338;28;20042;-84
2022/09/06 12:25:40;;;;;;;6.72;3.40;;;717.60;1945.60;;;;;;5041492;28;20022;-85
2022/09/06 12:28:18;;;;;;;4.20;2.83;;;742.70;1996.80;;;;;;5037382;28;20083;-84
2022/09/06 12:30:46;;;;;;;5.40;3.45;;;743.00;1971.20;;;;;;5039715;28;20028;-85
2022/09/06 12:33:29;;;;;;;4.43;2.90;;;743.00;1920.00;;;;;;5035638;28;20075;-83
2022/09/06 12:36:12;;;;;;;4.93;2.80;;;743.30;1920.00;;;;;;5074652;28;20041;-85